createdAt,value
2022-08-01T00:00:14.093Z,24.4
2022-08-01T00:01:24.209Z,24.4
2022-08-01T00:03:37.666Z,24.4
2022-08-01T00:04:10.370Z,24.4
2022-08-01T00:05:12.510Z,24.4
2022-08-01T00:06:36.759Z,24.4
2022-08-01T00:09:37.222Z,24.4
2022-08-01T00:11:08.050Z,24.4
2022-08-01T00:12:00.719Z,24.4
2022-08-01T00:12:37.433Z,24.3
2022-08-01T00:15:37.645Z,24.3
2022-08-01T00:18:38.755Z,24.3
2022-08-01T00:21:37.019Z,24.3
2022-08-01T00:24:29.799Z,24.3
2022-08-01T00:27:38.491Z,24.3
2022-08-01T00:28:13.770Z,24.3
2022-08-01T00:30:15.442Z,24.3
2022-08-01T00:31:32.883Z,24.3
2022-08-01T00:33:37.496Z,24.2
2022-08-01T00:36:34.394Z,24.2
2022-08-01T00:39:37.007Z,24.1
2022-08-01T00:41:37.052Z,24.1
2022-08-01T00:42:44.228Z,24.1
2022-08-01T00:45:07.967Z,24.1
2022-08-01T00:48:27.163Z,24
2022-08-01T00:50:26.750Z,24
2022-08-01T00:51:36.884Z,24
2022-08-01T00:54:17.339Z,23.9
2022-08-01T00:57:11.336Z,23.8
2022-08-01T00:58:06.916Z,23.8
2022-08-01T01:04:00.486Z,23.8
2022-08-01T01:06:38.727Z,23.8
2022-08-01T01:08:48.826Z,23.7
2022-08-01T01:09:37.046Z,23.7
2022-08-01T01:12:29.525Z,23.6
2022-08-01T01:13:51.513Z,23.6
2022-08-01T01:15:36.893Z,23.6
2022-08-01T01:16:39.569Z,23.6
2022-08-01T01:18:14.508Z,23.6
2022-08-01T01:21:08.509Z,23.6
2022-08-01T01:24:37.455Z,23.6
2022-08-01T01:26:19.802Z,23.6
2022-08-01T01:27:01.412Z,23.6
2022-08-01T01:30:01.623Z,23.7
2022-08-01T01:33:48.074Z,23.7
2022-08-01T01:35:13.414Z,23.7
2022-08-01T01:36:37.127Z,23.7
2022-08-01T01:39:37.469Z,23.7
2022-08-01T01:40:50.628Z,23.7
2022-08-01T01:42:38.424Z,23.7
2022-08-01T01:45:37.208Z,23.7
2022-08-01T01:48:37.264Z,23.7
2022-08-01T01:49:13.185Z,23.7
2022-08-01T01:51:37.699Z,23.7
2022-08-01T01:54:00.107Z,23.6
2022-08-01T01:57:36.896Z,23.6
2022-08-01T02:02:39.183Z,23.6
2022-08-01T02:03:37.054Z,23.6
2022-08-01T02:04:49.246Z,23.6
2022-08-01T02:06:37.152Z,23.6
2022-08-01T02:09:21.222Z,23.5
2022-08-01T02:12:10.394Z,23.5
2022-08-01T02:12:37.422Z,23.5
2022-08-01T02:14:38.514Z,23.5
2022-08-01T02:15:37.550Z,23.5
2022-08-01T02:18:38.681Z,23.5
2022-08-01T02:20:42.342Z,23.5
2022-08-01T02:21:36.790Z,23.5
2022-08-01T02:24:36.959Z,23.4
2022-08-01T02:25:29.859Z,23.4
2022-08-01T02:26:53.108Z,23.4
2022-08-01T02:27:37.192Z,23.4
2022-08-01T02:28:29.681Z,23.4
2022-08-01T02:30:25.375Z,23.4
2022-08-01T02:33:37.202Z,23.4
2022-08-01T02:36:37.407Z,23.4
2022-08-01T02:39:37.785Z,23.4
2022-08-01T02:42:38.574Z,23.4
2022-08-01T02:43:30.099Z,23.4
2022-08-01T02:45:36.734Z,23.4
2022-08-01T02:47:56.055Z,23.4
2022-08-01T02:48:28.825Z,23.4
2022-08-01T02:49:34.324Z,23.4
2022-08-01T02:51:37.679Z,23.4
2022-08-01T02:54:38.687Z,23.3
2022-08-01T02:58:01.140Z,23.3
2022-08-01T03:02:27.304Z,23.3
2022-08-01T03:03:36.591Z,23.3
2022-08-01T03:06:45.029Z,23.3
2022-08-01T03:09:37.717Z,23.3
2022-08-01T03:11:39.512Z,23.3
2022-08-01T03:12:36.950Z,23.3
2022-08-01T03:14:18.676Z,23.3
2022-08-01T03:15:25.481Z,23.3
2022-08-01T03:17:57.353Z,23.3
2022-08-01T03:18:39.611Z,23.3
2022-08-01T03:21:18.194Z,23.3
2022-08-01T03:24:36.926Z,23.4
2022-08-01T03:25:46.368Z,23.4
2022-08-01T03:27:37.329Z,23.3
2022-08-01T03:30:23.428Z,23.3
2022-08-01T03:32:32.079Z,23.3
2022-08-01T03:33:37.125Z,23.3
2022-08-01T03:35:11.974Z,23.3
2022-08-01T03:36:37.510Z,23.3
2022-08-01T03:39:36.726Z,23.3
2022-08-01T03:42:38.635Z,23.2
2022-08-01T03:44:33.842Z,23.2
2022-08-01T03:45:37.048Z,23.2
2022-08-01T03:47:45.951Z,23.2
2022-08-01T03:48:37.302Z,23.2
2022-08-01T03:50:13.109Z,23.2
2022-08-01T03:51:38.020Z,23.2
2022-08-01T03:54:39.067Z,23.2
2022-08-01T03:55:50.582Z,23.2
2022-08-01T03:56:55.873Z,23.2
2022-08-01T03:57:37.709Z,23.2
2022-08-01T03:59:33.767Z,23.2
2022-08-01T04:03:03.999Z,23.2
2022-08-01T04:03:43.697Z,23.2
2022-08-01T04:06:38.509Z,23.2
2022-08-01T04:08:09.162Z,23.2
2022-08-01T04:09:36.843Z,23.2
2022-08-01T04:12:37.150Z,23.2
2022-08-01T04:15:37.527Z,23.2
2022-08-01T04:18:38.601Z,23.2
2022-08-01T04:21:36.957Z,23.2
2022-08-01T04:22:18.090Z,23.2
2022-08-01T04:24:37.224Z,23.2
2022-08-01T04:27:07.980Z,23.2
2022-08-01T04:27:52.980Z,23.2
2022-08-01T04:31:40.569Z,23.2
2022-08-01T04:33:34.083Z,23.2
2022-08-01T04:35:01.708Z,23.2
2022-08-01T04:36:38.398Z,23.2
2022-08-01T04:38:38.183Z,23.2
2022-08-01T04:39:51.771Z,23.2
2022-08-01T04:41:18.186Z,23.2
2022-08-01T04:42:37.914Z,23.2
2022-08-01T04:45:37.647Z,23.2
2022-08-01T04:48:37.080Z,23.2
2022-08-01T04:51:37.361Z,23.2
2022-08-01T04:52:42.609Z,23.2
2022-08-01T04:53:30.230Z,23.2
2022-08-01T04:54:38.557Z,23.2
2022-08-01T04:57:36.956Z,23.2
2022-08-01T05:03:39.755Z,23.2
2022-08-01T05:04:10.801Z,23.2
2022-08-01T05:06:38.776Z,23.2
2022-08-01T05:07:46.144Z,23.2
2022-08-01T05:09:37.037Z,23.2
2022-08-01T05:12:14.100Z,23.2
2022-08-01T05:14:12.486Z,23.2
2022-08-01T05:15:36.811Z,23.2
2022-08-01T05:18:40.660Z,23.4
2022-08-01T05:21:12.379Z,23.4
2022-08-01T05:23:44.081Z,23.5
2022-08-01T05:24:40.375Z,23.5
2022-08-01T05:27:38.435Z,23.5
2022-08-01T05:33:35.377Z,23.6
2022-08-01T05:35:05.207Z,23.6
2022-08-01T05:35:49.860Z,23.6
2022-08-01T05:36:36.772Z,23.6
2022-08-01T05:39:37.289Z,23.7
2022-08-01T05:40:56.485Z,23.7
2022-08-01T05:41:33.782Z,23.7
2022-08-01T05:42:37.966Z,23.9
2022-08-01T05:45:37.195Z,23.9
2022-08-01T05:47:43.666Z,24
2022-08-01T05:48:36.783Z,24
2022-08-01T05:49:55.876Z,24
2022-08-01T05:50:31.834Z,24
2022-08-01T05:51:37.616Z,24
2022-08-01T05:54:41.279Z,24.1
2022-08-01T05:57:41.126Z,24.3
2022-08-01T05:58:21.372Z,24.3
2022-08-01T05:59:30.619Z,24.3
2022-08-01T06:03:37.490Z,24.5
2022-08-01T06:05:45.956Z,24.5
2022-08-01T06:06:17.496Z,24.5
2022-08-01T06:09:37.467Z,24.6
2022-08-01T06:12:37.043Z,24.8
2022-08-01T06:15:37.649Z,24.8
2022-08-01T06:16:33.880Z,24.8
2022-08-01T06:18:38.963Z,25
2022-08-01T06:20:40.143Z,25
2022-08-01T06:21:37.142Z,25
2022-08-01T06:24:37.298Z,25.1
2022-08-01T06:25:54.976Z,25.1
2022-08-01T06:27:23.161Z,25.3
2022-08-01T06:28:28.219Z,25.3
2022-08-01T06:36:37.721Z,25.4
2022-08-01T06:39:37.200Z,25.6
2022-08-01T06:41:15.139Z,25.6
2022-08-01T06:42:38.246Z,25.8
2022-08-01T06:44:53.401Z,25.8
2022-08-01T06:45:37.391Z,25.8
2022-08-01T06:48:37.158Z,25.9
2022-08-01T06:51:33.892Z,25.9
2022-08-01T06:54:38.206Z,26.1
2022-08-01T06:57:36.866Z,26.2
2022-08-01T06:58:32.280Z,26.2
2022-08-01T07:03:55.462Z,26.5
2022-08-01T07:05:34.831Z,26.5
2022-08-01T07:06:38.280Z,26.6
2022-08-01T07:09:37.661Z,26.6
2022-08-01T07:12:37.018Z,26.8
2022-08-01T07:14:12.547Z,26.8
2022-08-01T07:15:37.675Z,26.8
2022-08-01T07:18:38.812Z,27
2022-08-01T07:21:45.432Z,27.2
2022-08-01T07:24:37.285Z,27.2
2022-08-01T07:26:01.631Z,27.2
2022-08-01T07:27:37.533Z,27.5
2022-08-01T07:31:06.547Z,27.5
2022-08-01T07:33:50.058Z,27.8
2022-08-01T07:36:39.299Z,27.8
2022-08-01T07:37:57.917Z,28.2
2022-08-01T07:39:37.682Z,28.2
2022-08-01T07:42:38.524Z,28.7
2022-08-01T07:45:36.902Z,28.7
2022-08-01T07:48:37.309Z,29.2
2022-08-01T07:50:57.091Z,29.2
2022-08-01T07:51:37.500Z,29.2
2022-08-01T07:53:17.707Z,29.7
2022-08-01T07:54:39.522Z,29.7
2022-08-01T07:57:37.126Z,30.1
2022-08-01T08:03:36.999Z,30.5
2022-08-01T08:06:39.104Z,30.5
2022-08-01T08:09:38.687Z,30.6
2022-08-01T08:12:36.858Z,30.6
2022-08-01T08:15:38.997Z,30.6
2022-08-01T08:18:38.512Z,30.9
2022-08-01T08:21:36.823Z,30.9
2022-08-01T08:24:47.460Z,30.9
2022-08-01T08:26:01.037Z,30.9
2022-08-01T08:27:38.446Z,30.4
2022-08-01T08:33:38.115Z,30.1
2022-08-01T08:36:48.205Z,30.1
2022-08-01T08:39:42.888Z,30
2022-08-01T08:41:38.672Z,30
2022-08-01T08:42:38.654Z,30.1
2022-08-01T08:46:00.978Z,30.1
2022-08-01T08:48:36.994Z,30.4
2022-08-01T08:48:56.613Z,30.4
2022-08-01T08:50:12.466Z,30.4
2022-08-01T08:51:37.378Z,30.4
2022-08-01T08:54:38.702Z,30.4
2022-08-01T08:57:37.311Z,30.5
2022-08-01T09:02:11.951Z,30.5
2022-08-01T09:03:37.876Z,30.5
2022-08-01T09:06:39.403Z,30.5
2022-08-01T09:08:55.334Z,30.6
2022-08-01T09:12:40.492Z,30.6
2022-08-01T09:15:37.114Z,30.6
2022-08-01T09:18:38.477Z,30.6
2022-08-01T09:20:57.688Z,30.6
2022-08-01T09:21:40.371Z,30.6
2022-08-01T09:22:48.454Z,30.6
2022-08-01T09:24:37.558Z,30.6
2022-08-01T09:27:46.866Z,30.8
2022-08-01T09:30:02.675Z,30.8
2022-08-01T09:33:37.610Z,30.9
2022-08-01T09:36:39.173Z,30.9
2022-08-01T09:37:47.577Z,31.2
2022-08-01T09:39:37.584Z,31.2
2022-08-01T09:42:38.522Z,31.2
2022-08-01T09:45:53.788Z,31.2
2022-08-01T09:48:50.008Z,31.1
2022-08-01T09:52:01.406Z,31.1
2022-08-01T09:53:55.091Z,31.1
2022-08-01T09:54:39.984Z,31.1
2022-08-01T09:57:37.321Z,31
2022-08-01T10:00:01.773Z,31
2022-08-01T10:03:28.255Z,31
2022-08-01T10:06:38.291Z,31
2022-08-01T10:09:41.624Z,31.1
2022-08-01T10:11:39.462Z,31.1
2022-08-01T10:12:37.354Z,31.4
2022-08-01T10:13:51.878Z,31.4
2022-08-01T10:15:39.278Z,31.4
2022-08-01T10:18:39.480Z,31.4
2022-08-01T10:22:00.589Z,31.4
2022-08-01T10:22:34.009Z,31.2
2022-08-01T10:24:03.908Z,31.2
2022-08-01T10:24:40.195Z,31.2
2022-08-01T10:27:40.334Z,31.6
2022-08-01T10:30:53.873Z,31.6
2022-08-01T10:33:53.948Z,31.6
2022-08-01T10:36:44.037Z,31.6
2022-08-01T10:38:48.880Z,31.7
2022-08-01T10:39:39.117Z,31.7
2022-08-01T10:42:38.963Z,31.8
2022-08-01T10:45:37.537Z,31.8
2022-08-01T10:48:38.102Z,32.1
2022-08-01T10:49:26.395Z,32.1
2022-08-01T10:51:55.321Z,32.1
2022-08-01T10:54:53.447Z,32
2022-08-01T10:57:38.711Z,32
2022-08-01T10:58:45.963Z,32
2022-08-01T11:00:56.877Z,32
2022-08-01T11:04:01.857Z,32.2
2022-08-01T11:06:38.604Z,32.2
2022-08-01T11:08:01.402Z,32.4
2022-08-01T11:09:38.544Z,32.4
2022-08-01T11:12:37.032Z,32.2
2022-08-01T11:13:33.022Z,32.2
2022-08-01T11:15:51.368Z,32.2
2022-08-01T11:18:41.741Z,32.3
2022-08-01T11:22:02.120Z,32.3
2022-08-01T11:22:02.166Z,32.3
2022-08-01T11:23:10.970Z,32.6
2022-08-01T11:24:39.981Z,32.6
2022-08-01T11:27:38.098Z,32.6
2022-08-01T11:33:38.915Z,32.7
2022-08-01T11:34:40.826Z,32.7
2022-08-01T11:37:00.432Z,32.7
2022-08-01T11:37:31.489Z,32.5
2022-08-01T11:39:41.616Z,32.5
2022-08-01T11:42:38.347Z,33
2022-08-01T11:45:07.843Z,33
2022-08-01T11:45:40.891Z,33
2022-08-01T11:48:37.336Z,32.8
2022-08-01T11:51:37.322Z,32.8
2022-08-01T11:53:13.014Z,32.5
2022-08-01T11:54:37.216Z,32.5
2022-08-01T11:57:37.631Z,32.8
2022-08-01T12:00:56.968Z,32.8
2022-08-01T12:03:37.227Z,33
2022-08-01T12:05:43.941Z,33
2022-08-01T12:06:42.063Z,33
2022-08-01T12:09:24.585Z,32.7
2022-08-01T12:11:21.069Z,32.7
2022-08-01T12:12:37.612Z,33.1
2022-08-01T12:13:36.484Z,33.1
2022-08-01T12:15:37.083Z,33.1
2022-08-01T12:17:19.682Z,33.3
2022-08-01T12:18:38.725Z,33.3
2022-08-01T12:21:37.013Z,33.3
2022-08-01T12:23:22.770Z,33.5
2022-08-01T12:24:38.106Z,33.5
2022-08-01T12:27:37.555Z,33.7
2022-08-01T12:33:37.180Z,33.5
2022-08-01T12:35:35.695Z,33.5
2022-08-01T12:36:37.738Z,33.5
2022-08-01T12:39:40.818Z,33.5
2022-08-01T12:42:37.334Z,33.6
2022-08-01T12:44:02.387Z,33.6
2022-08-01T12:45:36.867Z,33.6
2022-08-01T12:48:36.940Z,33.6
2022-08-01T12:50:34.953Z,33.6
2022-08-01T12:51:37.397Z,33.6
2022-08-01T12:54:38.310Z,33.6
2022-08-01T12:57:23.298Z,33.8
2022-08-01T13:01:18.317Z,33.8
2022-08-01T13:02:05.687Z,33.8
2022-08-01T13:03:38.979Z,34
2022-08-01T13:05:10.277Z,34
2022-08-01T13:05:49.251Z,34
2022-08-01T13:06:39.202Z,34
2022-08-01T13:08:07.869Z,34.2
2022-08-01T13:09:37.443Z,34.2
2022-08-01T13:12:37.073Z,33.9
2022-08-01T13:15:42.431Z,33.9
2022-08-01T13:18:39.043Z,34
2022-08-01T13:19:47.075Z,34
2022-08-01T13:21:55.469Z,34
2022-08-01T13:22:45.134Z,34
2022-08-01T13:24:37.433Z,34
2022-08-01T13:26:43.300Z,34
2022-08-01T13:27:54.397Z,34
2022-08-01T13:33:36.953Z,33.9
2022-08-01T13:36:37.273Z,33.9
2022-08-01T13:37:42.139Z,34
2022-08-01T13:39:17.740Z,34
2022-08-01T13:41:51.946Z,34
2022-08-01T13:42:46.562Z,33.9
2022-08-01T13:45:31.682Z,33.9
2022-08-01T13:48:37.323Z,34.2
2022-08-01T13:51:37.858Z,34.2
2022-08-01T13:54:38.691Z,34.3
2022-08-01T13:55:53.697Z,34.3
2022-08-01T13:57:38.310Z,34.6
2022-08-01T14:00:23.109Z,34.6
2022-08-01T14:03:37.476Z,34.8
2022-08-01T14:06:42.102Z,34.8
2022-08-01T14:08:37.681Z,34.7
2022-08-01T14:10:20.945Z,34.7
2022-08-01T14:11:10.168Z,34.7
2022-08-01T14:12:37.577Z,35
2022-08-01T14:15:43.966Z,35
2022-08-01T14:18:38.622Z,35
2022-08-01T14:21:37.478Z,35
2022-08-01T14:24:41.928Z,34.7
2022-08-01T14:27:37.879Z,34.9
2022-08-01T14:31:34.919Z,34.9
2022-08-01T14:33:37.710Z,35
2022-08-01T14:35:13.767Z,35
2022-08-01T14:36:43.822Z,35
2022-08-01T14:39:01.445Z,34.9
2022-08-01T14:39:30.950Z,34.9
2022-08-01T14:42:38.296Z,34.8
2022-08-01T14:43:43.212Z,34.8
2022-08-01T14:45:36.983Z,34.8
2022-08-01T14:48:36.799Z,34.6
2022-08-01T14:51:39.138Z,34.6
2022-08-01T14:54:39.118Z,34.8
2022-08-01T14:55:50.548Z,34.8
2022-08-01T14:57:37.512Z,34.9
2022-08-01T14:59:01.717Z,34.9
2022-08-01T15:00:26.597Z,34.9
2022-08-01T15:03:37.782Z,34.7
2022-08-01T15:04:32.000Z,34.7
2022-08-01T15:06:39.116Z,34.7
2022-08-01T15:09:38.181Z,34.6
2022-08-01T15:11:08.956Z,34.6
2022-08-01T15:12:51.234Z,34.8
2022-08-01T15:13:27.843Z,34.8
2022-08-01T15:15:03.402Z,34.8
2022-08-01T15:15:37.167Z,34.8
2022-08-01T15:18:38.526Z,35
2022-08-01T15:21:42.707Z,35
2022-08-01T15:23:33.791Z,34.9
2022-08-01T15:24:36.879Z,34.9
2022-08-01T15:27:37.246Z,34.6
2022-08-01T15:33:38.487Z,34.6
2022-08-01T15:35:03.283Z,34.6
2022-08-01T15:36:43.924Z,34.6
2022-08-01T15:37:47.605Z,34.6
2022-08-01T15:39:35.459Z,34.6
2022-08-01T15:41:24.588Z,34.6
2022-08-01T15:42:38.302Z,35
2022-08-01T15:45:49.648Z,35
2022-08-01T15:46:11.909Z,35
2022-08-01T15:48:40.709Z,35
2022-08-01T15:51:37.126Z,35
2022-08-01T15:52:50.361Z,34.8
2022-08-01T15:54:05.795Z,34.8
2022-08-01T15:54:43.832Z,34.8
2022-08-01T15:55:20.325Z,34.8
2022-08-01T15:57:20.599Z,34.6
2022-08-01T15:58:12.385Z,34.6
2022-08-01T16:00:40.450Z,34.6
2022-08-01T16:03:37.275Z,34.7
2022-08-01T16:05:06.683Z,34.7
2022-08-01T16:06:38.383Z,34.7
2022-08-01T16:09:37.625Z,34.7
2022-08-01T16:12:36.981Z,34.6
2022-08-01T16:15:38.668Z,34.6
2022-08-01T16:16:48.743Z,34.6
2022-08-01T16:18:07.164Z,34.4
2022-08-01T16:18:39.015Z,34.4
2022-08-01T16:21:36.389Z,34.4
2022-08-01T16:24:37.393Z,34.3
2022-08-01T16:27:39.690Z,34
2022-08-01T16:30:27.013Z,34
2022-08-01T16:31:50.468Z,34
2022-08-01T16:34:05.290Z,34
2022-08-01T16:35:20.859Z,34
2022-08-01T16:36:42.402Z,34
2022-08-01T16:39:37.790Z,34
2022-08-01T16:42:18.433Z,33.9
2022-08-01T16:45:43.543Z,33.9
2022-08-01T16:48:37.124Z,33.9
2022-08-01T16:49:59.745Z,33.9
2022-08-01T16:51:48.806Z,33.9
2022-08-01T16:52:48.130Z,33.9
2022-08-01T16:54:38.237Z,33.9
2022-08-01T16:56:08.802Z,33.7
2022-08-01T16:56:38.838Z,33.7
2022-08-01T17:04:01.991Z,33.5
2022-08-01T17:04:35.713Z,33.5
2022-08-01T17:06:37.152Z,33.5
2022-08-01T17:08:21.679Z,33.4
2022-08-01T17:09:43.978Z,33.4
2022-08-01T17:12:37.322Z,33.4
2022-08-01T17:14:34.100Z,33.4
2022-08-01T17:15:37.525Z,33.4
2022-08-01T17:18:38.641Z,33.3
2022-08-01T17:19:57.361Z,33.3
2022-08-01T17:20:48.964Z,33.3
2022-08-01T17:21:41.945Z,33.3
2022-08-01T17:24:37.557Z,33.1
2022-08-01T17:25:23.771Z,33.1
2022-08-01T17:27:39.340Z,33
2022-08-01T17:30:43.400Z,33
2022-08-01T17:31:45.742Z,33
2022-08-01T17:33:55.280Z,32.9
2022-08-01T17:36:36.776Z,32.9
2022-08-01T17:39:40.684Z,32.9
2022-08-01T17:42:38.820Z,32.8
2022-08-01T17:45:29.671Z,32.8
2022-08-01T17:45:51.865Z,32.8
2022-08-01T17:48:03.296Z,32.8
2022-08-01T17:48:37.304Z,32.8
2022-08-01T17:51:23.256Z,32.8
2022-08-01T17:54:38.692Z,32.7
2022-08-01T17:57:09.774Z,32.7
2022-08-01T17:59:09.954Z,32.7
2022-08-01T18:01:31.699Z,32.7
2022-08-01T18:03:42.502Z,32.6
2022-08-01T18:06:59.521Z,32.6
2022-08-01T18:08:02.858Z,32.5
2022-08-01T18:09:46.304Z,32.5
2022-08-01T18:11:37.825Z,32.5
2022-08-01T18:12:38.054Z,32.5
2022-08-01T18:14:15.554Z,32.5
2022-08-01T18:15:27.500Z,32.5
2022-08-01T18:18:39.123Z,32.4
2022-08-01T18:21:08.046Z,32.4
2022-08-01T18:21:43.603Z,32.4
2022-08-01T18:23:05.822Z,32.2
2022-08-01T18:24:37.006Z,32.2
2022-08-01T18:26:43.296Z,32.2
2022-08-01T18:28:46.413Z,32.1
2022-08-01T18:33:34.090Z,31.9
2022-08-01T18:36:44.565Z,31.9
2022-08-01T18:38:14.718Z,31.7
2022-08-01T18:39:39.656Z,31.7
2022-08-01T18:42:38.203Z,31.6
2022-08-01T18:45:14.552Z,31.6
2022-08-01T18:46:39.718Z,31.6
2022-08-01T18:47:50.753Z,31.4
2022-08-01T18:48:36.990Z,31.4
2022-08-01T18:50:32.432Z,31.4
2022-08-01T18:55:35.626Z,31.3
2022-08-01T18:57:43.162Z,31.2
2022-08-01T19:00:34.198Z,31.2
2022-08-01T19:06:41.245Z,31.1
2022-08-01T19:09:37.659Z,30.9
2022-08-01T19:12:36.987Z,30.9
2022-08-01T19:13:59.802Z,30.9
2022-08-01T19:15:37.746Z,30.9
2022-08-01T19:17:51.474Z,30.7
2022-08-01T19:18:38.950Z,30.7
2022-08-01T19:21:45.300Z,30.7
2022-08-01T19:22:22.515Z,30.7
2022-08-01T19:24:37.635Z,30.6
2022-08-01T19:27:37.049Z,30.5
2022-08-01T19:29:15.893Z,30.5
2022-08-01T19:30:29.165Z,30.5
2022-08-01T19:33:37.102Z,30.4
2022-08-01T19:36:38.048Z,30.4
2022-08-01T19:37:10.592Z,30.4
2022-08-01T19:39:37.736Z,30.3
2022-08-01T19:40:30.340Z,30.3
2022-08-01T19:42:26.099Z,30.2
2022-08-01T19:45:37.830Z,30.2
2022-08-01T19:48:37.495Z,30.1
2022-08-01T19:50:27.522Z,30.1
2022-08-01T19:51:34.449Z,30.1
2022-08-01T19:54:38.905Z,30.1
2022-08-01T19:55:26.996Z,30.1
2022-08-01T19:58:26.728Z,29.9
2022-08-01T19:59:52.786Z,29.9
2022-08-01T20:00:30.296Z,29.9
2022-08-01T20:03:38.881Z,29.9
2022-08-01T20:06:36.833Z,29.9
2022-08-01T20:09:37.717Z,29.5
2022-08-01T20:11:21.947Z,29.5
2022-08-01T20:11:25.863Z,29.5
2022-08-01T20:12:09.895Z,29.5
2022-08-01T20:15:37.831Z,29.5
2022-08-01T20:17:00.249Z,29.5
2022-08-01T20:18:38.987Z,29.2
2022-08-01T20:21:07.648Z,29.2
2022-08-01T20:21:37.423Z,29.2
2022-08-01T20:24:44.427Z,29
2022-08-01T20:26:30.548Z,29
2022-08-01T20:27:37.121Z,28.9
2022-08-01T20:33:37.579Z,28.7
2022-08-01T20:36:26.346Z,28.7
2022-08-01T20:38:50.833Z,28.7
2022-08-01T20:39:37.026Z,28.7
2022-08-01T20:42:01.259Z,28.7
2022-08-01T20:42:37.204Z,28.7
2022-08-01T20:45:40.770Z,28.7
2022-08-01T20:46:23.137Z,28.7
2022-08-01T20:48:02.341Z,28.7
2022-08-01T20:48:37.207Z,28.7
2022-08-01T20:51:10.273Z,28.7
2022-08-01T20:51:43.002Z,28.7
2022-08-01T20:54:36.796Z,28.7
2022-08-01T20:57:30.393Z,28.3
2022-08-01T20:59:58.163Z,28.3
2022-08-01T21:03:37.588Z,28.3
2022-08-01T21:06:06.140Z,28.2
2022-08-01T21:06:37.264Z,28.2
2022-08-01T21:09:40.331Z,28.2
2022-08-01T21:12:37.598Z,28.2
2022-08-01T21:15:33.869Z,28.2
2022-08-01T21:18:09.910Z,28.2
2022-08-01T21:21:37.351Z,28.2
2022-08-01T21:23:29.896Z,28.2
2022-08-01T21:24:37.532Z,28.2
2022-08-01T21:27:14.142Z,28.2
2022-08-01T21:29:54.303Z,28.2
2022-08-01T21:31:00.591Z,28.2
2022-08-01T21:34:03.930Z,28.2
2022-08-01T21:36:07.109Z,28.1
2022-08-01T21:39:37.612Z,28.1
2022-08-01T21:40:10.740Z,28.1
2022-08-01T21:42:39.141Z,27.9
2022-08-01T21:44:37.916Z,27.9
2022-08-01T21:45:58.609Z,27.9
2022-08-01T21:47:58.581Z,27.9
2022-08-01T21:48:37.286Z,27.9
2022-08-01T21:49:08.956Z,27.9
2022-08-01T21:51:37.458Z,27.9
2022-08-01T21:54:37.336Z,27.9
2022-08-01T21:56:15.714Z,27.9
2022-08-01T21:57:37.723Z,27.7
2022-08-01T22:01:07.785Z,27.7
2022-08-01T22:03:37.402Z,27.7
2022-08-01T22:05:04.710Z,27.7
2022-08-01T22:06:36.558Z,27.7
2022-08-01T22:09:03.338Z,27.7
2022-08-01T22:09:36.606Z,27.7
2022-08-01T22:10:25.519Z,27.7
2022-08-01T22:12:36.967Z,27.7
2022-08-01T22:15:45.795Z,27.7
2022-08-01T22:18:38.839Z,27.7
2022-08-01T22:20:37.408Z,27.7
2022-08-01T22:21:37.084Z,27.7
2022-08-01T22:24:37.383Z,27.7
2022-08-01T22:25:35.683Z,27.7
2022-08-01T22:26:39.857Z,27.7
2022-08-01T22:28:10.579Z,27.7
2022-08-01T22:33:37.202Z,27.7
2022-08-01T22:36:36.779Z,27.7
2022-08-01T22:39:37.169Z,27.7
2022-08-01T22:42:38.676Z,27.7
2022-08-01T22:45:36.924Z,27.7
2022-08-01T22:48:37.076Z,27.7
2022-08-01T22:49:50.994Z,27.7
2022-08-01T22:51:37.369Z,27.7
2022-08-01T22:52:57.917Z,27.7
2022-08-01T22:54:39.082Z,27.7
2022-08-01T22:56:45.665Z,27.7
2022-08-01T22:57:37.202Z,27.7
2022-08-01T22:59:57.245Z,27.7
2022-08-01T23:02:49.791Z,27.7
2022-08-01T23:03:36.935Z,27.7
2022-08-01T23:06:36.997Z,27.7
2022-08-01T23:09:18.901Z,27.7
2022-08-01T23:09:55.797Z,27.7
2022-08-01T23:12:37.445Z,27.7
2022-08-01T23:15:38.487Z,27.7
2022-08-01T23:16:07.036Z,27.7
2022-08-01T23:17:45.517Z,27.7
2022-08-01T23:18:46.582Z,27.7
2022-08-01T23:21:42.492Z,27.7
2022-08-01T23:24:13.795Z,27.7
2022-08-01T23:26:33.136Z,27.7
2022-08-01T23:28:06.707Z,27.7
2022-08-01T23:33:37.264Z,27.7
2022-08-01T23:36:23.609Z,27.7
2022-08-01T23:37:29.072Z,27.7
2022-08-01T23:38:57.622Z,27.7
2022-08-01T23:39:36.659Z,27.7
2022-08-01T23:42:06.969Z,27.7
2022-08-01T23:42:38.481Z,27.9
2022-08-01T23:46:05.949Z,27.9
2022-08-01T23:48:00.334Z,27.9
2022-08-01T23:48:37.289Z,27.9
2022-08-01T23:50:47.198Z,27.9
2022-08-01T23:51:37.360Z,27.9
2022-08-01T23:54:37.121Z,27.9
2022-08-01T23:55:39.129Z,27.9
2022-08-01T23:57:13.554Z,27.9
2022-08-01T23:57:42.130Z,27.7
2022-08-01T23:59:58.526Z,27.7
